52.9°F
Current conditions from King Hill
Updated every 5 minutes
 
  Thursday October 19, 2017

Observations for Westford

Westford

44° 37' 39"N, 73° 02' 29"W, Elevation 850 ft.
Eastern Time

Hourly observations for the last 72 hours

Date Time Temperature (°F) Humi-
dity

(%)
Wind
(mph)
Pressure Rain (in)
Air Dew 6 Hour 1 Hr 3 Hr 6 Hr Day
Alt
(in)
Sea
Level

(mb)
Max Min
19 06:00 53.0 46.0 77 SSW 5 G 11 30.06 1017.9 0.00
19 05:00 52.7 46.0 78 SSW 4 G 10 30.07 1018.3 0.00
19 04:00 54.6 46.8 75 S 1 G 12 30.08 1018.7 0.00
19 03:00 53.8 46.8 77 S 4 G 12 30.10 1019.2 0.00
19 02:00 53.6 46.6 54.7 49.1 77 S 0 G 4 30.11 1019.7 0.00
19 01:00 54.7 47.3 76 S 0 G 9 30.12 1020.1 0.00
19 00:00 51.3 45.7 81 S 0 G 10 30.13 1020.2 0.00
18 23:00 51.5 45.9 81 SSW 2 G 10 30.13 1020.4 0.00
18 22:00 49.4 44.5 83 SSW 0 G 6 30.14 1020.7 0.00
18 21:00 51.4 44.1 76 SSW 0 G 6 30.15 1020.9 0.00
18 20:00 51.3 44.7 67.3 50.9 78 Calm 30.15 1021.0 0.00
18 19:00 51.9 44.9 77 SSW 0 G 5 30.15 1021.0 0.00
18 18:00 57.7 46.0 65 SSW 0 G 2 30.15 1020.9 0.00
18 17:00 65.6 46.5 50 SSW 2 G 8 30.14 1020.7 0.00
18 16:00 66.9 47.1 49 SSW 2 G 8 30.15 1021.1 0.00
18 15:00 66.1 46.9 50 SW 0 G 6 30.15 1021.1 0.00
18 14:00 64.5 48.0 64.8 43.7 55 SW 0 G 5 30.17 1021.6 0.00
18 13:00 62.9 48.4 59 W 3 G 7 30.19 1022.6 0.00
18 12:00 61.8 49.5 64 WSW 0 G 5 30.21 1023.0 0.00
18 11:00 58.4 48.3 69 WSW 0 G 8 30.20 1022.9 0.00
18 10:00 55.9 47.7 74 W 1 G 12 30.20 1022.9 0.00
18 09:00 48.0 42.5 81 SSW 2 G 7 30.19 1022.5 0.00
18 08:00 44.0 38.9 49.4 42.8 82 SSW 1 G 7 30.17 1021.6 0.00
18 07:00 44.0 38.5 81 SSW 3 G 7 30.14 1020.8 0.00
18 06:00 43.3 37.6 80 SSW 2 G 7 30.13 1020.2 0.00
18 05:00 43.9 36.8 76 SSW 2 G 8 30.10 1019.5 0.00
18 04:00 46.2 37.0 70 SSW 4 G 8 30.08 1018.8 0.00
18 03:00 48.0 37.2 66 SSW 4 G 11 30.08 1018.5 0.00
18 02:00 49.4 36.9 49.4 46.9 62 SW 2 G 11 30.07 1018.4 0.00
18 01:00 48.8 36.4 62 SSW 5 G 12 30.06 1017.8 0.00
18 00:00 48.7 35.9 61 SSW 4 G 14 30.06 1017.9 0.00
17 23:00 48.0 34.8 60 SSW 4 G 15 30.07 1018.3 0.00
17 22:00 48.3 35.1 60 SSW 3 G 15 30.07 1018.5 0.00
17 21:00 46.9 33.7 60 SSW 2 G 11 30.07 1018.3 0.00
17 20:00 48.1 33.2 54.9 47.2 56 SSW 4 G 13 30.06 1017.8 0.00
17 19:00 47.5 33.5 58 SSW 6 G 15 30.05 1017.8 0.00
17 18:00 48.4 33.0 55 SSW 3 G 14 30.06 1018.1 0.00
17 17:00 53.4 33.1 46 SSW 4 G 13 30.07 1018.3 0.00
17 16:00 54.0 33.1 45 SW 2 G 18 30.09 1019.1 0.00
17 15:00 52.6 32.9 47 SSW 9 G 16 30.10 1019.4 0.00
17 14:00 52.3 34.7 52.3 28.7 51 SSW 2 G 13 30.13 1020.5 0.00
17 13:00 49.4 33.0 53 SSW 4 G 11 30.17 1021.8 0.00
17 12:00 47.0 32.6 57 SW 5 G 11 30.22 1023.3 0.00
17 11:00 44.0 34.5 69 SSW 3 G 10 30.23 1023.8 0.00
17 10:00 40.9 35.8 82 SSW 2 G 7 30.26 1024.7 0.00
17 09:00 32.5 31.5 96 Calm 30.26 1024.6 0.00
17 08:00 28.7 27.7 31.4 27.9 96 Calm 30.25 1024.3 0.00
17 07:00 28.1 26.9 95 Calm 30.24 1024.0 0.00
17 06:00 29.8 28.5 95 Calm 30.24 1023.9 0.00
17 05:00 29.6 28.3 95 Calm 30.23 1023.7 0.00
17 04:00 29.4 28.1 95 Calm 30.21 1023.1 0.00
17 03:00 29.5 28.0 94 Calm 30.19 1022.3 0.00
17 02:00 31.2 29.7 40.4 30.8 94 Calm 30.18 1022.1 0.00
17 01:00 31.5 29.7 93 Calm 30.18 1022.1 0.00
17 00:00 32.6 29.7 89 Calm 30.17 1021.6 0.01
16 23:00 37.4 32.1 81 NW 0 G 6 30.16 1021.4 0.01
16 22:00 40.1 33.5 77 Calm 30.15 1021.2 0.01
16 21:00 40.2 33.9 78 Calm 30.14 1020.5 0.01
16 20:00 40.4 34.4 42.0 40.0 79 Calm 30.11 1019.8 0.01
16 19:00 40.6 34.3 78 Calm 30.10 1019.4 0.01
16 18:00 41.1 34.8 78 Calm 30.08 1018.7 0.01
16 17:00 41.3 35.3 79 Calm 30.06 1018.1 0.01
16 16:00 41.5 35.5 79 NW 0 G 10 30.04 1017.4 0.01
16 15:00 41.5 34.8 77 WNW 1 G 10 30.03 1017.1 0.01
16 14:00 41.1 35.4 42.7 40.1 80 NW 0 G 1 30.02 1016.8 0.01
16 13:00 41.2 35.8 81 NW 0 G 1 30.02 1016.7 0.01
16 12:00 42.4 36.0 78 NW 0 G 15 30.02 1016.5 0.01
16 11:00 41.8 36.1 80 NW 2 G 9 30.00 1016.1 0.01
16 10:00 40.9 36.4 84 NW 5 G 15 29.99 1015.4 0.01
16 09:00 40.5 36.6 86 NW 2 G 14 29.98 1015.2 0.01
16 08:00 40.2 37.2 49.9 40.2 89 Calm 29.95 1014.2 0.01 0.01
16 07:00 41.3 37.1 85 WNW 0 G 11 29.91 1012.8 0.01

Data generated by WxSolution Version 1.9.0.6, Build 2017.01.14.


 
 
Current Radar Loop:

Copyright © WestfordWeather.net 2007-2017. All rights reserved.